createdAt,value
2023-03-12T00:00:37.897Z,78.55
2023-03-12T00:01:37.891Z,78.27
2023-03-12T00:02:38.008Z,78.17
2023-03-12T00:03:58.980Z,78.08
2023-03-12T00:04:37.798Z,78.17
2023-03-12T00:05:37.785Z,78.27
2023-03-12T00:06:37.765Z,78.08
2023-03-12T00:07:37.737Z,78.64
2023-03-12T00:08:37.728Z,78.55
2023-03-12T00:09:58.704Z,78.64
2023-03-12T00:10:37.680Z,78.45
2023-03-12T00:11:37.649Z,78.64
2023-03-12T00:12:38.273Z,78.83
2023-03-12T00:13:38.295Z,78.64
2023-03-12T00:14:39.377Z,78.55
2023-03-12T00:15:58.606Z,78.55
2023-03-12T00:16:38.434Z,78.64
2023-03-12T00:17:37.529Z,78.83
2023-03-12T00:18:37.522Z,78.83
2023-03-12T00:19:37.496Z,78.83
2023-03-12T00:20:37.473Z,78.45
2023-03-12T00:21:58.436Z,78.74
2023-03-12T00:22:37.452Z,78.55
2023-03-12T00:23:37.445Z,78.92
2023-03-12T00:24:37.390Z,78.64
2023-03-12T00:25:37.368Z,78.74
2023-03-12T00:26:37.340Z,78.83
2023-03-12T00:27:58.299Z,78.83
2023-03-12T00:28:37.312Z,78.87
2023-03-12T00:29:37.269Z,78.78
2023-03-12T00:30:37.262Z,78.21
2023-03-12T00:31:37.233Z,78.59
2023-03-12T00:32:37.258Z,78.31
2023-03-12T00:33:58.186Z,78.50
2023-03-12T00:34:37.159Z,77.93
2023-03-12T00:35:37.173Z,77.83
2023-03-12T00:36:37.118Z,78.31
2023-03-12T00:37:37.122Z,78.12
2023-03-12T00:38:37.090Z,78.12
2023-03-12T00:39:58.049Z,78.50
2023-03-12T00:40:37.031Z,78.40
2023-03-12T00:41:37.006Z,78.12
2023-03-12T00:42:37.008Z,78.12
2023-03-12T00:43:36.968Z,78.31
2023-03-12T00:44:36.949Z,78.31
2023-03-12T00:45:57.938Z,78.40
2023-03-12T00:46:36.955Z,78.59
2023-03-12T00:47:36.881Z,78.40
2023-03-12T00:48:36.867Z,78.08
2023-03-12T00:49:36.841Z,78.64
2023-03-12T00:50:36.829Z,78.64
2023-03-12T00:51:57.800Z,78.64
2023-03-12T00:52:36.787Z,78.45
2023-03-12T00:53:36.786Z,78.36
2023-03-12T00:54:36.749Z,78.83
2023-03-12T00:55:36.730Z,78.64
2023-03-12T00:56:36.705Z,78.83
2023-03-12T00:57:57.682Z,78.74
2023-03-12T00:58:36.664Z,78.64
2023-03-12T00:59:36.622Z,78.92
2023-03-12T01:00:36.689Z,78.31
2023-03-12T01:01:36.593Z,78.78
2023-03-12T01:02:36.601Z,78.31
2023-03-12T01:03:57.568Z,78.59
2023-03-12T01:04:36.536Z,78.02
2023-03-12T01:05:36.519Z,78.21
2023-03-12T01:06:36.493Z,78.40
2023-03-12T01:07:36.463Z,78.50
2023-03-12T01:08:36.461Z,78.02
2023-03-12T01:09:57.434Z,78.02
2023-03-12T01:10:36.410Z,78.12
2023-03-12T01:11:36.390Z,77.55
2023-03-12T01:12:36.369Z,78.02
2023-03-12T01:13:36.348Z,77.83
2023-03-12T01:14:36.324Z,78.12
2023-03-12T01:15:57.380Z,78.02
2023-03-12T01:16:36.392Z,77.64
2023-03-12T01:17:36.267Z,77.64
2023-03-12T01:18:36.278Z,77.55
2023-03-12T01:19:36.217Z,77.59
2023-03-12T01:20:36.200Z,77.55
2023-03-12T01:21:57.191Z,77.83
2023-03-12T01:22:36.163Z,77.59
2023-03-12T01:23:36.135Z,77.69
2023-03-12T01:24:36.138Z,77.50
2023-03-12T01:25:36.101Z,77.69
2023-03-12T01:26:36.135Z,77.69
2023-03-12T01:27:57.053Z,77.59
2023-03-12T01:28:36.058Z,77.69
2023-03-12T01:29:36.014Z,77.69
2023-03-12T01:30:36.011Z,77.78
2023-03-12T01:31:36.045Z,77.97
2023-03-12T01:32:36.015Z,77.59
2023-03-12T01:33:56.950Z,77.69
2023-03-12T01:34:35.921Z,77.69
2023-03-12T01:35:35.967Z,77.87
2023-03-12T01:36:35.903Z,77.78
2023-03-12T01:37:35.862Z,77.31
2023-03-12T01:38:35.828Z,77.40
2023-03-12T01:39:56.811Z,77.69
2023-03-12T01:40:35.794Z,77.69
2023-03-12T01:41:35.773Z,77.69
2023-03-12T01:42:35.769Z,78.06
2023-03-12T01:43:35.742Z,77.87
2023-03-12T01:44:35.705Z,78.16
2023-03-12T01:45:56.735Z,77.69
2023-03-12T01:46:35.668Z,78.06
2023-03-12T01:47:35.649Z,78.16
2023-03-12T01:48:35.618Z,78.34
2023-03-12T01:49:35.613Z,78.34
2023-03-12T01:50:35.577Z,78.06
2023-03-12T01:51:56.591Z,78.16
2023-03-12T01:52:35.547Z,78.16
2023-03-12T01:53:35.545Z,78.06
2023-03-12T01:54:35.502Z,78.16
2023-03-12T01:55:35.490Z,78.16
2023-03-12T01:56:35.456Z,78.06
2023-03-12T01:57:56.456Z,77.87
2023-03-12T01:58:35.446Z,77.87
2023-03-12T01:59:35.406Z,77.59
2023-03-12T02:00:35.382Z,78.16
2023-03-12T02:01:35.365Z,78.06
2023-03-12T02:02:35.335Z,78.16
2023-03-12T02:03:56.362Z,78.06
2023-03-12T02:04:35.304Z,78.25
2023-03-12T02:05:35.327Z,78.16
2023-03-12T02:06:35.254Z,78.72
2023-03-12T02:07:35.246Z,78.53
2023-03-12T02:08:35.212Z,78.53
2023-03-12T02:09:56.203Z,78.53
2023-03-12T02:10:35.176Z,78.44
2023-03-12T02:11:35.164Z,78.44
2023-03-12T02:12:35.162Z,78.53
2023-03-12T02:13:35.136Z,78.44
2023-03-12T02:14:35.122Z,78.16
2023-03-12T02:15:56.082Z,78.34
2023-03-12T02:16:35.069Z,78.25
2023-03-12T02:17:35.040Z,78.63
2023-03-12T02:18:35.100Z,78.44
2023-03-12T02:19:35.063Z,78.72
2023-03-12T02:20:34.981Z,78.44
2023-03-12T02:21:55.959Z,77.78
2023-03-12T02:22:34.930Z,77.87
2023-03-12T02:23:34.944Z,77.87
2023-03-12T02:24:34.901Z,78.25
2023-03-12T02:25:34.892Z,77.97
2023-03-12T02:26:34.858Z,78.25
2023-03-12T02:27:55.846Z,78.25
2023-03-12T02:28:34.820Z,77.78
2023-03-12T02:29:34.843Z,78.06
2023-03-12T02:30:34.781Z,78.06
2023-03-12T02:31:34.794Z,78.16
2023-03-12T02:32:34.752Z,77.69
2023-03-12T02:33:55.731Z,77.69
2023-03-12T02:34:34.693Z,77.69
2023-03-12T02:35:34.756Z,77.69
2023-03-12T02:36:34.657Z,77.31
2023-03-12T02:37:34.680Z,77.78
2023-03-12T02:38:34.623Z,77.31
2023-03-12T02:39:55.601Z,77.40
2023-03-12T02:40:34.570Z,77.40
2023-03-12T02:41:34.567Z,77.78
2023-03-12T02:42:34.531Z,77.59
2023-03-12T02:43:34.522Z,77.78
2023-03-12T02:44:34.496Z,77.87
2023-03-12T02:45:55.653Z,77.59
2023-03-12T02:46:34.491Z,77.97
2023-03-12T02:47:34.439Z,77.69
2023-03-12T02:48:34.408Z,77.78
2023-03-12T02:49:34.437Z,77.59
2023-03-12T02:50:34.420Z,77.59
2023-03-12T02:51:55.359Z,77.87
2023-03-12T02:52:34.376Z,78.16
2023-03-12T02:53:34.317Z,77.87
2023-03-12T02:54:34.287Z,78.25
2023-03-12T02:55:34.284Z,77.97
2023-03-12T02:56:34.252Z,78.06
2023-03-12T02:57:55.238Z,77.87
2023-03-12T02:58:34.207Z,77.87
2023-03-12T02:59:34.223Z,77.87
2023-03-12T03:00:34.168Z,78.06
2023-03-12T03:01:34.299Z,78.16
2023-03-12T03:02:34.199Z,77.87
2023-03-12T03:03:55.185Z,78.06
2023-03-12T03:04:34.141Z,77.97
2023-03-12T03:05:34.081Z,77.78
2023-03-12T03:06:34.059Z,78.16
2023-03-12T03:07:34.078Z,77.78
2023-03-12T03:08:34.004Z,77.69
2023-03-12T03:09:55.000Z,77.78
2023-03-12T03:10:33.973Z,77.87
2023-03-12T03:11:33.955Z,77.40
2023-03-12T03:12:33.943Z,77.59
2023-03-12T03:13:33.914Z,77.69
2023-03-12T03:14:33.886Z,77.69
2023-03-12T03:15:54.976Z,77.40
2023-03-12T03:16:33.849Z,77.40
2023-03-12T03:17:33.859Z,77.50
2023-03-12T03:18:33.844Z,77.50
2023-03-12T03:19:33.804Z,77.59
2023-03-12T03:20:33.772Z,77.87
2023-03-12T03:21:54.781Z,77.69
2023-03-12T03:22:33.730Z,77.87
2023-03-12T03:23:33.709Z,78.16
2023-03-12T03:24:33.692Z,78.16
2023-03-12T03:25:33.686Z,78.06
2023-03-12T03:26:33.680Z,78.53
2023-03-12T03:27:54.672Z,78.34
2023-03-12T03:28:33.609Z,78.53
2023-03-12T03:29:33.599Z,78.06
2023-03-12T03:30:33.571Z,78.63
2023-03-12T03:31:33.587Z,78.81
2023-03-12T03:32:33.617Z,78.53
2023-03-12T03:33:54.514Z,78.25
2023-03-12T03:34:33.502Z,78.16
2023-03-12T03:35:33.505Z,77.78
2023-03-12T03:36:33.468Z,77.78
2023-03-12T03:37:33.454Z,77.59
2023-03-12T03:38:33.413Z,77.78
2023-03-12T03:39:54.401Z,77.78
2023-03-12T03:40:33.365Z,77.69
2023-03-12T03:41:33.371Z,77.50
2023-03-12T03:42:33.331Z,77.87
2023-03-12T03:43:33.318Z,77.97
2023-03-12T03:44:33.299Z,77.69
2023-03-12T03:45:54.295Z,78.06
2023-03-12T03:46:33.296Z,77.78
2023-03-12T03:47:33.243Z,77.97
2023-03-12T03:48:33.207Z,78.06
2023-03-12T03:49:33.188Z,78.06
2023-03-12T03:50:33.170Z,77.97
2023-03-12T03:51:54.168Z,78.06
2023-03-12T03:52:33.148Z,77.69
2023-03-12T03:53:33.104Z,77.72
2023-03-12T03:54:33.077Z,77.69
2023-03-12T03:55:33.063Z,77.50
2023-03-12T03:56:33.047Z,77.97
2023-03-12T03:57:54.041Z,78.25
2023-03-12T03:58:32.995Z,77.50
2023-03-12T03:59:32.979Z,77.69
2023-03-12T04:00:32.958Z,78.16
2023-03-12T04:01:32.952Z,77.97
2023-03-12T04:02:32.921Z,78.06
2023-03-12T04:03:53.902Z,78.16
2023-03-12T04:04:32.876Z,78.10
2023-03-12T04:05:32.907Z,78.10
2023-03-12T04:06:32.852Z,78.20
2023-03-12T04:07:32.840Z,78.10
2023-03-12T04:08:32.807Z,78.25
2023-03-12T04:09:53.794Z,77.97
2023-03-12T04:10:32.772Z,77.97
2023-03-12T04:11:32.740Z,77.97
2023-03-12T04:12:32.810Z,78.53
2023-03-12T04:13:32.734Z,78.63
2023-03-12T04:14:32.710Z,78.16
2023-03-12T04:15:53.731Z,78.06
2023-03-12T04:16:32.656Z,78.53
2023-03-12T04:17:32.624Z,78.53
2023-03-12T04:18:32.608Z,78.44
2023-03-12T04:19:32.666Z,78.72
2023-03-12T04:20:32.587Z,78.53
2023-03-12T04:21:53.571Z,78.20
2023-03-12T04:22:32.514Z,78.39
2023-03-12T04:23:32.518Z,78.39
2023-03-12T04:24:32.530Z,78.10
2023-03-12T04:25:32.476Z,78.10
2023-03-12T04:26:32.472Z,78.86
2023-03-12T04:27:53.431Z,78.48
2023-03-12T04:28:32.399Z,78.67
2023-03-12T04:29:32.410Z,77.72
2023-03-12T04:30:32.377Z,78.58
2023-03-12T04:31:32.411Z,78.67
2023-03-12T04:32:32.440Z,78.10
2023-03-12T04:33:53.306Z,78.20
2023-03-12T04:34:32.316Z,78.20
2023-03-12T04:35:32.304Z,78.01
2023-03-12T04:36:32.258Z,77.63
2023-03-12T04:37:32.225Z,77.91
2023-03-12T04:38:32.196Z,77.63
2023-03-12T04:39:53.194Z,77.72
2023-03-12T04:40:32.156Z,77.25
2023-03-12T04:41:32.181Z,77.44
2023-03-12T04:42:32.124Z,77.44
2023-03-12T04:43:32.102Z,77.15
2023-03-12T04:44:32.072Z,77.15
2023-03-12T04:45:53.078Z,77.15
2023-03-12T04:46:32.094Z,77.15
2023-03-12T04:47:32.027Z,77.15
2023-03-12T04:48:32.001Z,77.44
2023-03-12T04:49:32.004Z,77.25
2023-03-12T04:50:32.002Z,77.44
2023-03-12T04:51:52.949Z,77.15
2023-03-12T04:52:31.919Z,77.34
2023-03-12T04:53:31.947Z,77.15
2023-03-12T04:54:31.888Z,77.25
2023-03-12T04:55:31.886Z,77.29
2023-03-12T04:56:31.856Z,77.39
2023-03-12T04:57:52.834Z,77.39
2023-03-12T04:58:31.822Z,77.29
2023-03-12T04:59:31.792Z,77.39
2023-03-12T05:00:31.770Z,77.39
2023-03-12T05:01:31.774Z,77.48
2023-03-12T05:02:31.743Z,77.29
2023-03-12T05:03:52.790Z,77.48
2023-03-12T05:04:33.644Z,77.29
2023-03-12T05:05:31.667Z,77.58
2023-03-12T05:06:31.656Z,77.29
2023-03-12T05:07:31.639Z,77.29
2023-03-12T05:08:31.607Z,77.20
2023-03-12T05:09:52.593Z,77.29
2023-03-12T05:10:31.571Z,77.20
2023-03-12T05:11:31.552Z,77.29
2023-03-12T05:12:31.536Z,77.29
2023-03-12T05:13:31.529Z,77.48
2023-03-12T05:14:31.505Z,77.48
2023-03-12T05:15:52.487Z,77.39
2023-03-12T05:16:31.510Z,77.48
2023-03-12T05:17:31.458Z,77.01
2023-03-12T05:18:31.423Z,77.39
2023-03-12T05:19:31.395Z,77.20
2023-03-12T05:20:31.375Z,77.39
2023-03-12T05:21:52.364Z,77.29
2023-03-12T05:22:31.352Z,77.39
2023-03-12T05:23:31.358Z,77.29
2023-03-12T05:24:31.310Z,77.48
2023-03-12T05:25:31.274Z,77.58
2023-03-12T05:26:31.278Z,77.29
2023-03-12T05:27:52.260Z,77.39
2023-03-12T05:28:31.229Z,77.20
2023-03-12T05:29:31.196Z,77.10
2023-03-12T05:30:31.183Z,77.29
2023-03-12T05:31:31.180Z,77.01
2023-03-12T05:32:31.186Z,76.82
2023-03-12T05:33:53.013Z,76.72
2023-03-12T05:34:31.102Z,76.72
2023-03-12T05:35:31.132Z,77.10
2023-03-12T05:36:31.063Z,77.01
2023-03-12T05:37:31.130Z,77.10
2023-03-12T05:38:31.019Z,77.10
2023-03-12T05:39:52.015Z,77.58
2023-03-12T05:40:30.982Z,77.10
2023-03-12T05:41:30.969Z,77.29
2023-03-12T05:42:30.940Z,77.29
2023-03-12T05:43:30.928Z,77.01
2023-03-12T05:44:30.930Z,76.72
2023-03-12T05:45:51.941Z,76.91
2023-03-12T05:46:30.887Z,76.91
2023-03-12T05:47:30.848Z,76.82
2023-03-12T05:48:30.834Z,76.82
2023-03-12T05:49:30.808Z,76.63
2023-03-12T05:50:30.818Z,76.72
2023-03-12T05:51:51.768Z,76.91
2023-03-12T05:52:30.756Z,76.72
2023-03-12T05:53:30.741Z,76.91
2023-03-12T05:54:30.717Z,77.01
2023-03-12T05:55:30.698Z,76.82
2023-03-12T05:56:30.689Z,76.91
2023-03-12T05:57:51.669Z,76.86
2023-03-12T05:58:30.630Z,76.95
2023-03-12T05:59:30.603Z,76.95
2023-03-12T06:00:30.594Z,76.91
2023-03-12T06:01:30.594Z,77.01
2023-03-12T06:02:30.606Z,76.67
2023-03-12T06:03:51.527Z,76.86
2023-03-12T06:04:30.567Z,76.86
2023-03-12T06:05:30.501Z,76.86
2023-03-12T06:06:30.512Z,76.86
2023-03-12T06:07:30.529Z,77.04
2023-03-12T06:08:30.438Z,76.76
2023-03-12T06:09:51.425Z,76.76
2023-03-12T06:10:30.392Z,76.57
2023-03-12T06:11:30.373Z,76.57
2023-03-12T06:12:30.381Z,76.57
2023-03-12T06:13:30.337Z,76.48
2023-03-12T06:14:30.313Z,76.57
2023-03-12T06:15:51.307Z,76.57
2023-03-12T06:16:30.328Z,76.57
2023-03-12T06:17:30.254Z,76.48
2023-03-12T06:18:30.256Z,75.91
2023-03-12T06:19:30.225Z,76.19
2023-03-12T06:20:30.207Z,76.10
2023-03-12T06:21:51.201Z,76.38
2023-03-12T06:22:30.164Z,76.19
2023-03-12T06:23:30.151Z,76.48
2023-03-12T06:24:30.176Z,76.23
2023-03-12T06:25:30.108Z,76.42
2023-03-12T06:26:30.084Z,75.85
2023-03-12T06:27:51.087Z,75.95
2023-03-12T06:28:30.042Z,76.23
2023-03-12T06:29:30.030Z,75.95
2023-03-12T06:30:30.007Z,75.66
2023-03-12T06:31:30.143Z,75.85
2023-03-12T06:32:30.103Z,75.76
2023-03-12T06:33:50.989Z,75.95
2023-03-12T06:34:29.940Z,75.47
2023-03-12T06:35:29.959Z,75.57
2023-03-12T06:36:29.893Z,75.38
2023-03-12T06:37:29.867Z,75.28
2023-03-12T06:38:29.864Z,75.38
2023-03-12T06:39:50.858Z,75.95
2023-03-12T06:40:29.828Z,75.85
2023-03-12T06:41:29.819Z,75.66
2023-03-12T06:42:29.770Z,76.14
2023-03-12T06:43:29.754Z,76.04
2023-03-12T06:44:29.745Z,75.95
2023-03-12T06:45:50.720Z,76.46
2023-03-12T06:46:29.751Z,76.08
2023-03-12T06:47:29.687Z,76.17
2023-03-12T06:48:29.657Z,76.36
2023-03-12T06:49:29.641Z,76.17
2023-03-12T06:50:29.621Z,75.79
2023-03-12T06:51:50.625Z,75.60
2023-03-12T06:52:29.603Z,75.51
2023-03-12T06:53:29.667Z,75.51
2023-03-12T06:54:29.593Z,75.32
2023-03-12T06:55:29.517Z,74.75
2023-03-12T06:56:29.509Z,75.23
2023-03-12T06:57:50.487Z,74.85
2023-03-12T06:58:29.462Z,74.47
2023-03-12T06:59:29.450Z,74.56
2023-03-12T07:00:29.439Z,74.66
2023-03-12T07:01:29.407Z,74.85
2023-03-12T07:02:29.424Z,74.66
2023-03-12T07:03:50.372Z,74.66
2023-03-12T07:04:30.262Z,74.75
2023-03-12T07:05:30.152Z,74.47
2023-03-12T07:06:29.338Z,74.56
2023-03-12T07:07:29.322Z,74.56
2023-03-12T07:08:29.301Z,74.75
2023-03-12T07:09:50.284Z,74.75
2023-03-12T07:10:29.276Z,74.66
2023-03-12T07:11:29.237Z,74.66
2023-03-12T07:12:29.233Z,74.66
2023-03-12T07:13:29.228Z,74.56
2023-03-12T07:14:29.195Z,74.85
2023-03-12T07:15:50.230Z,74.85
2023-03-12T07:16:29.190Z,74.47
2023-03-12T07:17:29.123Z,74.56
2023-03-12T07:18:29.114Z,74.66
2023-03-12T07:19:29.087Z,74.47
2023-03-12T07:20:29.094Z,74.09
2023-03-12T07:21:50.153Z,74.09
2023-03-12T07:22:29.054Z,74.41
2023-03-12T07:23:29.020Z,74.13
2023-03-12T07:24:29.003Z,73.75
2023-03-12T07:25:29.001Z,73.94
2023-03-12T07:26:28.978Z,73.88
2023-03-12T07:27:49.936Z,73.50
2023-03-12T07:28:28.936Z,73.31
2023-03-12T07:29:28.923Z,73.22
2023-03-12T07:30:28.917Z,72.93
2023-03-12T07:31:28.932Z,72.84
2023-03-12T07:32:28.940Z,73.03
2023-03-12T07:33:49.930Z,73.50
2023-03-12T07:34:28.896Z,73.31
2023-03-12T07:35:28.884Z,72.74
2023-03-12T07:36:28.883Z,73.22
2023-03-12T07:37:28.739Z,73.41
2023-03-12T07:38:28.846Z,73.41
2023-03-12T07:39:49.732Z,73.60
2023-03-12T07:40:28.684Z,73.60
2023-03-12T07:41:28.693Z,73.60
2023-03-12T07:42:28.681Z,73.50
2023-03-12T07:43:28.666Z,74.16
2023-03-12T07:44:28.628Z,73.69
2023-03-12T07:45:49.750Z,73.60
2023-03-12T07:46:28.646Z,73.50
2023-03-12T07:47:28.716Z,73.60
2023-03-12T07:48:28.550Z,73.60
2023-03-12T07:49:28.511Z,73.35
2023-03-12T07:50:28.662Z,73.44
2023-03-12T07:51:49.544Z,73.63
2023-03-12T07:52:28.565Z,73.44
2023-03-12T07:53:28.445Z,73.63
2023-03-12T07:54:28.472Z,73.63
2023-03-12T07:55:28.422Z,73.63
2023-03-12T07:56:28.423Z,73.44
2023-03-12T07:57:49.470Z,73.54
2023-03-12T07:58:28.425Z,73.44
2023-03-12T07:59:28.415Z,73.44
2023-03-12T08:00:28.391Z,73.31
2023-03-12T08:01:28.535Z,73.41
2023-03-12T08:02:28.476Z,73.50
2023-03-12T08:03:49.313Z,73.88
2023-03-12T08:04:28.400Z,73.97
2023-03-12T08:05:28.348Z,73.88
2023-03-12T08:06:28.223Z,73.97
2023-03-12T08:07:28.326Z,74.07
2023-03-12T08:08:28.231Z,73.88
2023-03-12T08:09:49.417Z,73.88
2023-03-12T08:10:28.170Z,73.97
2023-03-12T08:11:28.120Z,73.88
2023-03-12T08:12:28.234Z,73.79
2023-03-12T08:13:28.212Z,73.79
2023-03-12T08:14:28.075Z,73.69
2023-03-12T08:15:49.723Z,73.88
2023-03-12T08:16:28.085Z,73.97
2023-03-12T08:17:28.013Z,74.07
2023-03-12T08:18:28.017Z,73.97
2023-03-12T08:19:27.972Z,73.97
2023-03-12T08:20:28.048Z,73.69
2023-03-12T08:21:48.949Z,73.79
2023-03-12T08:22:27.914Z,73.69
2023-03-12T08:23:27.893Z,74.07
2023-03-12T08:24:27.881Z,73.79
2023-03-12T08:25:27.871Z,73.97
2023-03-12T08:26:27.842Z,73.79
2023-03-12T08:27:48.872Z,73.97
2023-03-12T08:28:27.823Z,73.97
2023-03-12T08:29:27.782Z,73.94
2023-03-12T08:30:30.115Z,73.94
2023-03-12T08:31:27.816Z,74.13
2023-03-12T08:32:27.883Z,74.41
2023-03-12T08:33:48.758Z,74.22
2023-03-12T08:34:27.728Z,74.41
2023-03-12T08:35:27.716Z,74.69
2023-03-12T08:36:27.702Z,74.51
2023-03-12T08:37:27.641Z,74.51
2023-03-12T08:38:27.658Z,74.69
2023-03-12T08:39:48.615Z,74.60
2023-03-12T08:40:27.593Z,74.69
2023-03-12T08:41:27.565Z,74.79
2023-03-12T08:42:27.555Z,75.17
2023-03-12T08:43:29.283Z,74.60
2023-03-12T08:44:27.520Z,74.60
2023-03-12T08:45:48.538Z,75.04
2023-03-12T08:46:27.539Z,75.23
2023-03-12T08:47:27.477Z,75.23
2023-03-12T08:48:27.464Z,74.85
2023-03-12T08:49:27.456Z,75.45
2023-03-12T08:50:27.605Z,75.36
2023-03-12T08:51:48.399Z,75.84
2023-03-12T08:52:27.380Z,74.79
2023-03-12T08:53:27.344Z,75.42
2023-03-12T08:54:27.362Z,75.23
2023-03-12T08:55:27.329Z,75.23
2023-03-12T08:56:27.296Z,75.60
2023-03-12T08:57:48.280Z,75.51
2023-03-12T08:58:27.253Z,75.79
2023-03-12T08:59:27.243Z,75.60
2023-03-12T09:00:27.293Z,75.89
2023-03-12T09:01:27.201Z,75.89
2023-03-12T09:02:27.190Z,76.46
2023-03-12T09:03:48.160Z,76.27
2023-03-12T09:04:27.207Z,76.03
2023-03-12T09:05:27.126Z,76.12
2023-03-12T09:06:27.110Z,75.74
2023-03-12T09:07:27.147Z,75.79
2023-03-12T09:08:27.078Z,75.79
2023-03-12T09:09:48.097Z,76.17
2023-03-12T09:10:30.278Z,76.17
2023-03-12T09:11:27.055Z,75.98
2023-03-12T09:12:27.029Z,75.79
2023-03-12T09:13:40.548Z,75.60
2023-03-12T09:15:02.150Z,75.98
2023-03-12T09:15:47.943Z,76.08
2023-03-12T09:16:26.939Z,76.08
2023-03-12T09:17:26.912Z,76.27
2023-03-12T09:18:26.899Z,76.46
2023-03-12T09:19:26.888Z,76.46
2023-03-12T09:20:26.911Z,76.17
2023-03-12T09:21:47.858Z,76.46
2023-03-12T09:22:26.830Z,76.50
2023-03-12T09:23:26.788Z,76.50
2023-03-12T09:24:26.856Z,76.31
2023-03-12T09:25:26.787Z,76.21
2023-03-12T09:26:26.755Z,76.40
2023-03-12T09:27:47.764Z,76.31
2023-03-12T09:28:26.716Z,76.12
2023-03-12T09:29:26.733Z,76.21
2023-03-12T09:30:26.752Z,76.12
2023-03-12T09:31:26.696Z,76.59
2023-03-12T09:32:26.679Z,76.31
2023-03-12T09:33:47.592Z,76.31
2023-03-12T09:34:26.588Z,76.50
2023-03-12T09:35:26.586Z,76.50
2023-03-12T09:36:26.543Z,76.78
2023-03-12T09:37:26.519Z,76.87
2023-03-12T09:38:26.510Z,76.68
2023-03-12T09:39:47.550Z,76.87
2023-03-12T09:40:26.505Z,76.63
2023-03-12T09:41:26.437Z,76.54
2023-03-12T09:42:26.439Z,76.54
2023-03-12T09:43:26.408Z,76.54
2023-03-12T09:44:26.392Z,76.31
2023-03-12T09:45:47.378Z,76.59
2023-03-12T09:46:26.439Z,76.63
2023-03-12T09:47:26.349Z,77.01
2023-03-12T09:48:26.316Z,76.73
2023-03-12T09:49:26.301Z,76.82
2023-03-12T09:50:26.291Z,77.11
2023-03-12T09:51:47.255Z,77.01
2023-03-12T09:52:26.275Z,77.01
2023-03-12T09:53:26.231Z,77.11
2023-03-12T09:54:26.196Z,76.73
2023-03-12T09:55:26.192Z,77.01
2023-03-12T09:56:26.169Z,77.01
2023-03-12T09:57:47.161Z,77.01
2023-03-12T09:58:26.148Z,77.11
2023-03-12T09:59:26.109Z,77.01
2023-03-12T10:00:26.101Z,77.20
2023-03-12T10:01:26.167Z,77.20
2023-03-12T10:02:26.063Z,77.20
2023-03-12T10:03:47.035Z,77.11
2023-03-12T10:04:26.069Z,77.11
2023-03-12T10:05:26.085Z,76.82
2023-03-12T10:06:26.024Z,77.01
2023-03-12T10:07:25.957Z,77.14
2023-03-12T10:08:30.599Z,76.76
2023-03-12T10:09:46.934Z,77.05
2023-03-12T10:10:25.916Z,77.05
2023-03-12T10:11:25.895Z,77.05
2023-03-12T10:12:25.886Z,76.86
2023-03-12T10:13:25.853Z,76.95
2023-03-12T10:14:25.829Z,77.05
2023-03-12T10:15:46.883Z,77.05
2023-03-12T10:16:25.798Z,77.05
2023-03-12T10:17:25.779Z,77.14
2023-03-12T10:18:25.902Z,77.71
2023-03-12T10:19:25.744Z,77.52
2023-03-12T10:20:25.724Z,76.95
2023-03-12T10:21:46.713Z,77.24
2023-03-12T10:22:25.693Z,77.52
2023-03-12T10:23:25.684Z,77.43
2023-03-12T10:24:25.677Z,77.18
2023-03-12T10:25:25.644Z,77.09
2023-03-12T10:26:25.612Z,77.28
2023-03-12T10:27:46.643Z,77.28
2023-03-12T10:28:25.572Z,77.28
2023-03-12T10:29:25.556Z,77.47
2023-03-12T10:30:25.543Z,77.56
2023-03-12T10:31:25.672Z,77.56
2023-03-12T10:32:25.539Z,77.66
2023-03-12T10:33:46.498Z,77.56
2023-03-12T10:34:25.473Z,77.56
2023-03-12T10:35:25.457Z,77.66
2023-03-12T10:36:25.428Z,77.66
2023-03-12T10:37:25.433Z,77.66
2023-03-12T10:38:25.406Z,77.56
2023-03-12T10:39:46.380Z,77.84
2023-03-12T10:40:25.355Z,77.56
2023-03-12T10:41:25.374Z,77.47
2023-03-12T10:42:25.369Z,77.66
2023-03-12T10:43:25.332Z,77.66
2023-03-12T10:44:25.326Z,77.56
2023-03-12T10:45:46.288Z,77.37
2023-03-12T10:46:25.306Z,77.56
2023-03-12T10:47:25.242Z,77.37
2023-03-12T10:48:25.228Z,77.75
2023-03-12T10:49:25.220Z,77.79
2023-03-12T10:50:25.184Z,77.41
2023-03-12T10:51:46.178Z,77.51
2023-03-12T10:52:25.146Z,77.60
2023-03-12T10:53:25.644Z,77.60
2023-03-12T10:54:25.117Z,77.70
2023-03-12T10:55:25.107Z,77.60
2023-03-12T10:56:25.076Z,77.70
2023-03-12T10:57:46.074Z,77.79
2023-03-12T10:58:25.044Z,77.70
2023-03-12T10:59:25.037Z,77.60
2023-03-12T11:00:25.019Z,77.98
2023-03-12T11:01:25.044Z,77.79
2023-03-12T11:02:24.982Z,77.79
2023-03-12T11:03:45.979Z,77.55
2023-03-12T11:04:24.943Z,77.64
2023-03-12T11:05:24.930Z,77.17
2023-03-12T11:06:24.920Z,77.26
2023-03-12T11:07:24.910Z,77.45
2023-03-12T11:08:24.889Z,77.17
2023-03-12T11:09:45.868Z,77.07
2023-03-12T11:10:24.853Z,76.92
2023-03-12T11:11:24.815Z,77.39
2023-03-12T11:12:24.800Z,76.92
2023-03-12T11:13:24.784Z,76.73
2023-03-12T11:14:24.764Z,76.63
2023-03-12T11:15:45.782Z,76.82
2023-03-12T11:16:24.856Z,76.82
2023-03-12T11:17:24.756Z,76.25
2023-03-12T11:18:24.692Z,76.25
2023-03-12T11:19:24.683Z,76.54
2023-03-12T11:20:24.681Z,75.87
2023-03-12T11:21:45.702Z,76.82
2023-03-12T11:22:24.643Z,76.54
2023-03-12T11:23:24.621Z,76.92
2023-03-12T11:24:24.597Z,76.73
2023-03-12T11:25:24.659Z,76.54
2023-03-12T11:26:24.562Z,76.73
2023-03-12T11:27:45.572Z,77.20
2023-03-12T11:28:24.696Z,76.63
2023-03-12T11:29:24.558Z,76.73
2023-03-12T11:30:24.592Z,76.82
2023-03-12T11:31:24.537Z,76.63
2023-03-12T11:32:24.517Z,76.29
2023-03-12T11:33:45.493Z,76.39
2023-03-12T11:34:24.444Z,76.57
2023-03-12T11:35:24.498Z,76.39
2023-03-12T11:36:24.394Z,76.10
2023-03-12T11:37:24.394Z,75.91
2023-03-12T11:38:24.359Z,75.62
2023-03-12T11:39:45.342Z,76.20
2023-03-12T11:40:24.336Z,75.91
2023-03-12T11:41:24.308Z,75.95
2023-03-12T11:42:24.291Z,75.38
2023-03-12T11:43:41.673Z,75.47
2023-03-12T11:44:24.278Z,75.19
2023-03-12T11:45:45.248Z,75.57
2023-03-12T11:46:24.259Z,75.67
2023-03-12T11:47:24.339Z,74.80
2023-03-12T11:48:24.263Z,75.13
2023-03-12T11:49:24.196Z,75.32
2023-03-12T11:50:24.175Z,74.40
2023-03-12T11:51:45.155Z,74.88
2023-03-12T11:52:24.126Z,74.31
2023-03-12T11:53:24.111Z,74.25
2023-03-12T11:54:24.092Z,73.65
2023-03-12T11:55:24.076Z,74.31
2023-03-12T11:56:24.094Z,73.74
2023-03-12T11:57:45.049Z,74.27
2023-03-12T11:58:24.038Z,74.18
2023-03-12T11:59:24.025Z,74.75
2023-03-12T12:00:23.993Z,74.75
2023-03-12T12:01:24.058Z,74.99
2023-03-12T12:02:24.011Z,74.99
2023-03-12T12:03:44.973Z,76.33
2023-03-12T12:04:23.927Z,76.52
2023-03-12T12:05:23.922Z,76.52
2023-03-12T12:06:23.891Z,76.33
2023-03-12T12:07:23.888Z,76.10
2023-03-12T12:08:23.864Z,76.76
2023-03-12T12:09:44.849Z,77.00
2023-03-12T12:10:23.825Z,77.19
2023-03-12T12:11:23.812Z,77.28
2023-03-12T12:12:23.796Z,77.37
2023-03-12T12:13:23.778Z,77.19
2023-03-12T12:14:23.768Z,76.27
2023-03-12T12:15:44.754Z,76.56
2023-03-12T12:16:23.858Z,76.46
2023-03-12T12:17:23.733Z,76.75
2023-03-12T12:18:23.690Z,76.56
2023-03-12T12:19:23.702Z,76.46
2023-03-12T12:20:23.706Z,76.18
2023-03-12T12:21:44.652Z,76.27
2023-03-12T12:22:23.626Z,76.75
2023-03-12T12:23:23.642Z,77.03
2023-03-12T12:24:23.608Z,77.32
2023-03-12T12:25:23.599Z,77.42
2023-03-12T12:26:23.564Z,77.42
2023-03-12T12:27:44.577Z,77.70
2023-03-12T12:28:23.551Z,77.32
2023-03-12T12:29:23.524Z,77.47
2023-03-12T12:30:23.523Z,77.76
2023-03-12T12:31:23.503Z,77.98
2023-03-12T12:32:23.498Z,77.80
2023-03-12T12:33:44.462Z,77.98
2023-03-12T12:34:23.482Z,77.51
2023-03-12T12:35:23.431Z,77.32
2023-03-12T12:36:23.422Z,77.26
2023-03-12T12:37:23.391Z,76.98
2023-03-12T12:38:23.400Z,76.88
2023-03-12T12:39:46.889Z,76.25
2023-03-12T12:40:23.343Z,76.06
2023-03-12T12:41:23.393Z,75.78
2023-03-12T12:42:23.303Z,75.49
2023-03-12T12:43:23.313Z,75.40
2023-03-12T12:44:23.277Z,75.59
2023-03-12T12:45:44.299Z,75.15
2023-03-12T12:46:23.377Z,75.15
2023-03-12T12:47:23.230Z,74.77
2023-03-12T12:48:23.218Z,75.18
2023-03-12T12:49:23.205Z,74.38
2023-03-12T12:50:23.242Z,74.23
2023-03-12T12:51:44.184Z,74.42
2023-03-12T12:52:23.159Z,74.04